Time;durP1;ratioP1;P1;durP2;ratioP2;P2;SDS_P1;SDS_P2;PMS_P1;PMS_P2;Temp;Humidity;BMP_temperature;BMP_pressure;BME280_temperature;BME280_humidity;BME280_pressure;Samples;Min_cycle;Max_cycle;Signal;HPM_P1;HPM_P2
2023/12/20 00:01:26;;;;;;;370.77;269.05;;;;;;;;;;5014672;28;20112;-74
2023/12/20 00:03:51;;;;;;;355.02;250.40;;;;;;;;;;5009240;28;20097;-74
2023/12/20 00:06:17;;;;;;;333.88;238.68;;;;;;;;;;5009112;28;20095;-76
2023/12/20 00:08:42;;;;;;;309.70;222.90;;;;;;;;;;5010748;28;20082;-73
2023/12/20 00:11:07;;;;;;;328.85;218.68;;;;;;;;;;5022877;28;20348;-74
2023/12/20 00:13:33;;;;;;;338.23;245.07;;;;;;;;;;5022845;28;20033;-76
2023/12/20 00:15:58;;;;;;;295.67;214.25;;;;;;;;;;5023008;28;20021;-73
2023/12/20 00:18:23;;;;;;;369.55;259.23;;;;;;;;;;5022625;28;20055;-76
2023/12/20 00:20:49;;;;;;;353.27;262.98;;;;;;;;;;5022540;28;20091;-73
2023/12/20 00:23:14;;;;;;;337.35;240.40;;;;;;;;;;5021467;28;20029;-74
2023/12/20 00:25:40;;;;;;;317.33;229.18;;;;;;;;;;5023092;28;20022;-75
2023/12/20 00:28:05;;;;;;;345.58;254.55;;;;;;;;;;5021330;28;20428;-75
2023/12/20 00:30:31;;;;;;;324.30;255.75;;;;;;;;;;5022635;28;20112;-74
2023/12/20 00:32:56;;;;;;;306.15;230.60;;;;;;;;;;5022510;28;21543;-74
2023/12/20 00:35:22;;;;;;;211.75;164.73;;;;;;;;;;5024905;28;20309;-75
2023/12/20 00:37:47;;;;;;;185.70;141.20;;;;;;;;;;5022676;28;20109;-76
2023/12/20 00:40:12;;;;;;;238.52;179.30;;;;;;;;;;5021667;28;20121;-74
2023/12/20 00:42:38;;;;;;;201.50;150.38;;;;;;;;;;5022249;28;20773;-75
2023/12/20 00:45:04;;;;;;;146.23;111.40;;;;;;;;;;5022262;28;20065;-75
2023/12/20 00:47:30;;;;;;;206.30;162.38;;;;;;;;;;5022618;28;20025;-77
2023/12/20 00:49:55;;;;;;;176.07;134.68;;;;;;;;;;5005386;28;20386;-74
2023/12/20 00:52:22;;;;;;;190.82;149.75;;;;;;;;;;5021999;28;20512;-76
2023/12/20 00:54:48;;;;;;;185.27;141.40;;;;;;;;;;5019995;28;20063;-76
2023/12/20 00:57:13;;;;;;;119.00;83.32;;;;;;;;;;5014707;28;20520;-75
2023/12/20 00:59:38;;;;;;;131.55;104.25;;;;;;;;;;5017863;28;20087;-75
2023/12/20 01:02:04;;;;;;;152.77;121.13;;;;;;;;;;5020831;28;20039;-74
2023/12/20 01:04:29;;;;;;;115.55;90.43;;;;;;;;;;5021275;28;20349;-75
2023/12/20 01:06:54;;;;;;;105.78;83.10;;;;;;;;;;5022091;28;20046;-78
2023/12/20 01:09:23;;;;;;;109.18;86.97;;;;;;;;;;5019566;28;20046;-77
2023/12/20 01:11:48;;;;;;;106.32;86.28;;;;;;;;;;5022053;28;20066;-75
2023/12/20 01:14:14;;;;;;;140.40;115.80;;;;;;;;;;5021310;28;20040;-76
2023/12/20 01:16:39;;;;;;;166.23;132.48;;;;;;;;;;5021804;28;20440;-75
2023/12/20 01:19:04;;;;;;;112.35;91.95;;;;;;;;;;5021770;28;20033;-77
2023/12/20 01:21:30;;;;;;;186.48;142.82;;;;;;;;;;5021323;28;20033;-76
2023/12/20 01:23:55;;;;;;;187.60;145.52;;;;;;;;;;5022204;28;20116;-76
2023/12/20 01:26:20;;;;;;;124.03;94.05;;;;;;;;;;5021318;28;20022;-74
2023/12/20 01:28:46;;;;;;;81.53;66.35;;;;;;;;;;5002181;28;20017;-76
2023/12/20 01:31:11;;;;;;;86.88;70.45;;;;;;;;;;5008750;28;20108;-75
2023/12/20 01:33:36;;;;;;;81.85;62.08;;;;;;;;;;5020689;28;20084;-74
2023/12/20 01:36:02;;;;;;;112.07;88.80;;;;;;;;;;5015919;28;20021;-75
2023/12/20 01:38:27;;;;;;;130.52;100.10;;;;;;;;;;5005675;28;20041;-74
2023/12/20 01:40:53;;;;;;;124.32;89.40;;;;;;;;;;5012910;28;20029;-75
2023/12/20 01:43:18;;;;;;;90.53;66.38;;;;;;;;;;5000586;28;20021;-74
2023/12/20 01:45:44;;;;;;;82.40;65.07;;;;;;;;;;5010975;28;20044;-75
2023/12/20 01:48:10;;;;;;;98.00;77.28;;;;;;;;;;5021815;28;20451;-75
2023/12/20 01:50:36;;;;;;;131.25;97.03;;;;;;;;;;5021584;28;20484;-75
2023/12/20 01:53:02;;;;;;;70.07;57.70;;;;;;;;;;5020076;28;20106;-75
2023/12/20 01:55:29;;;;;;;74.10;58.75;;;;;;;;;;5021255;28;20124;-75
2023/12/20 01:57:55;;;;;;;113.22;90.95;;;;;;;;;;5021221;28;20044;-74
2023/12/20 02:00:23;;;;;;;90.50;68.95;;;;;;;;;;5020569;28;20033;-76
2023/12/20 02:02:50;;;;;;;94.00;73.57;;;;;;;;;;5020077;28;20037;-76
2023/12/20 02:05:16;;;;;;;89.97;67.72;;;;;;;;;;5007589;28;20029;-78
2023/12/20 02:07:41;;;;;;;60.70;47.28;;;;;;;;;;5001941;28;20418;-74
2023/12/20 02:10:07;;;;;;;116.35;90.22;;;;;;;;;;5020117;28;20034;-77
2023/12/20 02:12:32;;;;;;;252.70;179.40;;;;;;;;;;5021465;28;20052;-75
2023/12/20 02:14:58;;;;;;;89.53;68.47;;;;;;;;;;5006788;28;20453;-74
2023/12/20 02:17:23;;;;;;;297.63;213.15;;;;;;;;;;5011523;28;20496;-74
2023/12/20 02:19:49;;;;;;;175.00;125.60;;;;;;;;;;5019770;28;20025;-76
2023/12/20 02:22:15;;;;;;;291.13;231.05;;;;;;;;;;5021082;28;20033;-77
2023/12/20 02:24:40;;;;;;;116.55;90.68;;;;;;;;;;5020706;28;20112;-76
2023/12/20 02:27:06;;;;;;;101.32;80.38;;;;;;;;;;5018017;28;20239;-79
2023/12/20 02:29:32;;;;;;;99.13;75.03;;;;;;;;;;5010866;28;20102;-78
2023/12/20 02:31:57;;;;;;;88.00;65.93;;;;;;;;;;5020414;28;20160;-77
2023/12/20 02:34:23;;;;;;;61.50;50.85;;;;;;;;;;5020179;28;20037;-76
2023/12/20 02:36:48;;;;;;;59.92;50.65;;;;;;;;;;4999136;28;20029;-77
2023/12/20 02:39:14;;;;;;;93.65;76.55;;;;;;;;;;5006026;28;20029;-78
2023/12/20 02:41:39;;;;;;;63.60;51.03;;;;;;;;;;4983189;28;20376;-78
2023/12/20 02:44:05;;;;;;;50.80;42.35;;;;;;;;;;5001678;28;20753;-79
2023/12/20 02:46:30;;;;;;;40.60;32.90;;;;;;;;;;5020287;28;20111;-76
2023/12/20 02:48:55;;;;;;;37.63;31.65;;;;;;;;;;5011534;28;20087;-77
2023/12/20 02:51:21;;;;;;;43.97;36.70;;;;;;;;;;5006055;28;20500;-77
2023/12/20 02:53:46;;;;;;;74.18;57.95;;;;;;;;;;5019574;28;20106;-76
2023/12/20 02:56:11;;;;;;;53.20;45.35;;;;;;;;;;5008643;28;20087;-75
2023/12/20 02:58:37;;;;;;;32.90;27.45;;;;;;;;;;5011745;28;20430;-76
2023/12/20 03:01:02;;;;;;;40.50;33.15;;;;;;;;;;5006270;28;20092;-75
2023/12/20 03:03:28;;;;;;;48.30;37.38;;;;;;;;;;5019272;28;20403;-75
2023/12/20 03:05:53;;;;;;;37.47;30.90;;;;;;;;;;5019787;28;20029;-75
2023/12/20 03:08:18;;;;;;;51.38;40.50;;;;;;;;;;5019318;28;20114;-75
2023/12/20 03:10:44;;;;;;;35.92;28.50;;;;;;;;;;5011823;28;20671;-74
2023/12/20 03:13:09;;;;;;;40.97;32.47;;;;;;;;;;5019139;28;20058;-73
2023/12/20 03:15:34;;;;;;;51.15;37.28;;;;;;;;;;5019731;28;20128;-75
2023/12/20 03:18:00;;;;;;;65.22;46.58;;;;;;;;;;5019789;28;20021;-73
2023/12/20 03:20:28;;;;;;;44.55;34.53;;;;;;;;;;5019989;28;20127;-75
2023/12/20 03:22:53;;;;;;;47.97;38.28;;;;;;;;;;5024007;28;20032;-75
2023/12/20 03:25:19;;;;;;;60.63;42.78;;;;;;;;;;5022452;28;20029;-75
2023/12/20 03:27:44;;;;;;;41.47;30.55;;;;;;;;;;5023915;28;20022;-72
2023/12/20 03:30:09;;;;;;;46.75;34.10;;;;;;;;;;5007802;28;20047;-72
2023/12/20 03:32:35;;;;;;;36.03;27.00;;;;;;;;;;5011497;28;20107;-73
2023/12/20 03:35:00;;;;;;;37.38;27.67;;;;;;;;;;5012728;28;20025;-74
2023/12/20 03:37:25;;;;;;;32.08;24.25;;;;;;;;;;5023488;28;20443;-75
2023/12/20 03:39:51;;;;;;;65.20;45.97;;;;;;;;;;5023730;28;20309;-75
2023/12/20 03:42:16;;;;;;;70.75;51.25;;;;;;;;;;5023474;28;20064;-76
2023/12/20 03:44:41;;;;;;;43.33;32.25;;;;;;;;;;5023556;28;20053;-76
2023/12/20 03:47:07;;;;;;;59.92;43.00;;;;;;;;;;5022838;28;20071;-73
2023/12/20 03:49:33;;;;;;;100.22;78.07;;;;;;;;;;5021769;28;20093;-73
2023/12/20 03:51:58;;;;;;;179.95;137.45;;;;;;;;;;5004291;28;20452;-74
2023/12/20 03:54:24;;;;;;;147.27;103.85;;;;;;;;;;5009961;28;20052;-74
2023/12/20 03:56:49;;;;;;;111.65;74.30;;;;;;;;;;5006873;28;20148;-75
2023/12/20 03:59:14;;;;;;;93.85;62.15;;;;;;;;;;5022220;28;20116;-75
2023/12/20 04:01:43;;;;;;;117.28;75.70;;;;;;;;;;5021887;28;20455;-74
2023/12/20 04:04:08;;;;;;;119.53;89.15;;;;;;;;;;5022276;28;20348;-75
2023/12/20 04:06:33;;;;;;;151.07;110.43;;;;;;;;;;5022620;28;20108;-74
2023/12/20 04:08:59;;;;;;;146.40;105.15;;;;;;;;;;5022437;28;20073;-75
2023/12/20 04:11:24;;;;;;;138.00;99.93;;;;;;;;;;5023173;28;20075;-76
2023/12/20 04:13:49;;;;;;;135.70;100.00;;;;;;;;;;5023584;28;20094;-75
2023/12/20 04:16:15;;;;;;;153.57;111.82;;;;;;;;;;5007136;28;20021;-75
2023/12/20 04:18:40;;;;;;;123.25;95.43;;;;;;;;;;5022608;28;20029;-74
2023/12/20 04:21:06;;;;;;;119.32;94.95;;;;;;;;;;5022001;28;20061;-74
2023/12/20 04:23:31;;;;;;;123.28;92.55;;;;;;;;;;5022603;28;20413;-76
2023/12/20 04:25:57;;;;;;;116.28;90.47;;;;;;;;;;5010171;28;20029;-76
2023/12/20 04:28:22;;;;;;;115.32;89.45;;;;;;;;;;5022591;28;20087;-75
2023/12/20 04:30:47;;;;;;;96.70;68.90;;;;;;;;;;5022814;28;20040;-75
2023/12/20 04:33:13;;;;;;;122.60;90.10;;;;;;;;;;5019010;28;20471;-75
2023/12/20 04:35:40;;;;;;;96.20;74.00;;;;;;;;;;5011932;28;20504;-74
2023/12/20 04:38:05;;;;;;;81.47;62.08;;;;;;;;;;5021378;28;20037;-74
2023/12/20 04:40:31;;;;;;;122.82;97.20;;;;;;;;;;5009403;28;20445;-74
2023/12/20 04:42:56;;;;;;;51.47;40.50;;;;;;;;;;5021485;28;20120;-73
2023/12/20 04:45:23;;;;;;;31.58;24.88;;;;;;;;;;5010426;28;20033;-76
2023/12/20 04:47:48;;;;;;;35.58;28.40;;;;;;;;;;5008490;28;20037;-75
2023/12/20 04:50:14;;;;;;;39.72;32.00;;;;;;;;;;5006989;28;20025;-74
2023/12/20 04:52:39;;;;;;;49.20;40.92;;;;;;;;;;5013167;28;20029;-77
2023/12/20 04:55:05;;;;;;;62.88;50.60;;;;;;;;;;5008777;28;20030;-76
2023/12/20 04:57:30;;;;;;;62.20;51.70;;;;;;;;;;5006554;28;20438;-78
2023/12/20 04:59:56;;;;;;;43.20;35.67;;;;;;;;;;5012899;28;20026;-76
2023/12/20 05:02:22;;;;;;;37.67;31.77;;;;;;;;;;5006645;28;20108;-75
2023/12/20 05:04:47;;;;;;;29.40;24.42;;;;;;;;;;5008710;28;20057;-74
2023/12/20 05:07:12;;;;;;;30.38;25.75;;;;;;;;;;5017517;28;20057;-75
2023/12/20 05:09:38;;;;;;;59.13;44.70;;;;;;;;;;5006198;28;20328;-76
2023/12/20 05:12:03;;;;;;;68.80;50.63;;;;;;;;;;5015983;28;20437;-76
2023/12/20 05:14:29;;;;;;;56.83;43.50;;;;;;;;;;5014610;28;20029;-77
2023/12/20 05:16:54;;;;;;;55.60;46.67;;;;;;;;;;5021852;28;20952;-77
2023/12/20 05:19:19;;;;;;;64.82;51.03;;;;;;;;;;5022296;28;20021;-76
2023/12/20 05:21:45;;;;;;;75.70;56.45;;;;;;;;;;5011743;28;20017;-76
2023/12/20 05:24:10;;;;;;;101.28;67.78;;;;;;;;;;5013372;28;20329;-77
2023/12/20 05:26:35;;;;;;;83.25;64.05;;;;;;;;;;5013222;28;20053;-78
2023/12/20 05:29:04;;;;;;;138.27;101.20;;;;;;;;;;5006359;28;20456;-77
2023/12/20 05:31:29;;;;;;;129.80;94.63;;;;;;;;;;5018475;28;20134;-78
2023/12/20 05:33:54;;;;;;;177.68;131.80;;;;;;;;;;5021194;28;20025;-76
2023/12/20 05:36:20;;;;;;;548.03;411.10;;;;;;;;;;5011065;28;20403;-76
2023/12/20 05:38:45;;;;;;;344.02;255.13;;;;;;;;;;5014779;28;20026;-73
2023/12/20 05:41:11;;;;;;;230.40;183.57;;;;;;;;;;5020371;28;20040;-74
2023/12/20 05:43:36;;;;;;;176.10;138.30;;;;;;;;;;5007187;28;20075;-75
2023/12/20 05:46:02;;;;;;;305.77;231.73;;;;;;;;;;5007109;28;20025;-73
2023/12/20 05:48:27;;;;;;;269.73;205.30;;;;;;;;;;5004166;28;20064;-73
2023/12/20 05:50:52;;;;;;;221.18;162.75;;;;;;;;;;5006670;28;23020;-73
2023/12/20 05:53:18;;;;;;;139.05;103.03;;;;;;;;;;5014060;28;20033;-73
2023/12/20 05:55:43;;;;;;;219.48;161.25;;;;;;;;;;5020495;28;20044;-75
2023/12/20 05:58:08;;;;;;;275.08;208.07;;;;;;;;;;5005030;28;20755;-75
2023/12/20 06:00:34;;;;;;;259.15;199.73;;;;;;;;;;5018556;28;20022;-76
2023/12/20 06:02:59;;;;;;;269.60;210.35;;;;;;;;;;5021092;28;20086;-76
2023/12/20 06:05:25;;;;;;;269.13;202.63;;;;;;;;;;5020454;28;20029;-74
2023/12/20 06:07:50;;;;;;;286.50;218.18;;;;;;;;;;5020925;28;20275;-74
2023/12/20 06:10:16;;;;;;;227.52;175.45;;;;;;;;;;5020314;28;20059;-73
2023/12/20 06:12:41;;;;;;;375.40;272.88;;;;;;;;;;5020656;28;20087;-75
2023/12/20 06:15:07;;;;;;;212.43;170.38;;;;;;;;;;5020355;28;20416;-75
2023/12/20 06:17:32;;;;;;;165.15;141.32;;;;;;;;;;5021967;28;20324;-78
2023/12/20 06:19:58;;;;;;;205.25;148.77;;;;;;;;;;5012452;28;20036;-76
2023/12/20 06:22:23;;;;;;;139.77;112.97;;;;;;;;;;5012589;28;20037;-77
2023/12/20 06:24:49;;;;;;;175.57;134.70;;;;;;;;;;5012419;28;20857;-75
2023/12/20 06:27:14;;;;;;;183.95;138.70;;;;;;;;;;5020470;28;20021;-76
2023/12/20 06:29:40;;;;;;;173.50;129.93;;;;;;;;;;5020288;28;20074;-75
2023/12/20 06:32:06;;;;;;;173.57;136.48;;;;;;;;;;5012974;28;20040;-76
2023/12/20 06:34:31;;;;;;;123.88;100.68;;;;;;;;;;5017695;28;20025;-75
2023/12/20 06:36:57;;;;;;;133.45;107.40;;;;;;;;;;5020185;28;20018;-76
2023/12/20 06:39:22;;;;;;;168.00;137.50;;;;;;;;;;5020414;28;20025;-74
2023/12/20 06:41:47;;;;;;;301.77;238.85;;;;;;;;;;5019209;28;20048;-75
2023/12/20 06:44:13;;;;;;;346.63;270.63;;;;;;;;;;5020675;28;20033;-73
2023/12/20 06:46:38;;;;;;;375.30;310.88;;;;;;;;;;5012031;28;20144;-74
2023/12/20 06:49:03;;;;;;;251.38;217.82;;;;;;;;;;5010337;28;20701;-74
2023/12/20 06:51:30;;;;;;;363.98;291.33;;;;;;;;;;5019602;28;20394;-78
2023/12/20 06:53:56;;;;;;;327.10;264.83;;;;;;;;;;5019673;28;20069;-74
2023/12/20 06:56:21;;;;;;;309.50;254.80;;;;;;;;;;5019805;28;20077;-73
2023/12/20 06:58:46;;;;;;;300.83;252.90;;;;;;;;;;5019459;28;20087;-78
2023/12/20 07:01:13;;;;;;;382.92;300.60;;;;;;;;;;5009745;28;20045;-77
2023/12/20 07:03:40;;;;;;;481.05;376.58;;;;;;;;;;5011922;28;20068;-76
2023/12/20 07:06:05;;;;;;;334.45;278.60;;;;;;;;;;5012496;28;20044;-74
2023/12/20 07:08:30;;;;;;;255.30;213.82;;;;;;;;;;5023163;28;20041;-76
2023/12/20 07:10:56;;;;;;;288.52;245.73;;;;;;;;;;5023748;28;20107;-75
2023/12/20 07:13:22;;;;;;;268.08;231.43;;;;;;;;;;5013236;28;20028;-76
2023/12/20 07:15:48;;;;;;;267.50;225.18;;;;;;;;;;5022006;28;20029;-77
2023/12/20 07:18:13;;;;;;;248.32;218.05;;;;;;;;;;5027492;28;20029;-76
2023/12/20 07:20:38;;;;;;;230.63;205.23;;;;;;;;;;5023176;28;20061;-76
2023/12/20 07:23:04;;;;;;;273.75;239.27;;;;;;;;;;5024382;28;20017;-77
2023/12/20 07:25:32;;;;;;;373.92;300.50;;;;;;;;;;5023779;28;20029;-77
2023/12/20 07:27:57;;;;;;;160.15;131.15;;;;;;;;;;5023547;28;20104;-77
2023/12/20 07:30:23;;;;;;;238.77;185.70;;;;;;;;;;5009028;28;20504;-77
2023/12/20 07:32:48;;;;;;;219.95;195.63;;;;;;;;;;5013501;28;20056;-76
2023/12/20 07:35:13;;;;;;;241.70;211.23;;;;;;;;;;5016482;28;20449;-77
2023/12/20 07:37:39;;;;;;;318.60;260.73;;;;;;;;;;5017457;28;20041;-78
2023/12/20 07:40:04;;;;;;;264.17;223.18;;;;;;;;;;5023944;28;20041;-77
2023/12/20 07:42:30;;;;;;;234.73;198.15;;;;;;;;;;5023084;28;20033;-78
2023/12/20 07:44:55;;;;;;;180.27;145.43;;;;;;;;;;5024128;28;20057;-77
2023/12/20 07:47:21;;;;;;;201.55;166.25;;;;;;;;;;5023813;28;20087;-77
2023/12/20 07:49:51;;;;;;;134.52;115.97;;;;;;;;;;5024341;28;20432;-78
2023/12/20 07:52:16;;;;;;;197.07;166.68;;;;;;;;;;5023067;28;20029;-79
2023/12/20 07:54:42;;;;;;;241.30;204.35;;;;;;;;;;5024247;28;20413;-78
2023/12/20 07:57:07;;;;;;;266.17;223.60;;;;;;;;;;5023806;28;20041;-77
2023/12/20 07:59:33;;;;;;;259.90;228.05;;;;;;;;;;5023302;28;20140;-74
2023/12/20 08:01:58;;;;;;;246.45;220.43;;;;;;;;;;5013441;28;20029;-76
2023/12/20 08:04:24;;;;;;;198.93;177.27;;;;;;;;;;5008813;28;20037;-75
2023/12/20 08:06:50;;;;;;;164.90;147.35;;;;;;;;;;5008470;28;20049;-75
2023/12/20 08:09:15;;;;;;;150.00;131.13;;;;;;;;;;4996512;28;20064;-77
2023/12/20 08:11:44;;;;;;;161.50;144.15;;;;;;;;;;5008673;28;20033;-75
2023/12/20 08:14:10;;;;;;;187.73;167.32;;;;;;;;;;5008978;28;20032;-75
2023/12/20 08:16:35;;;;;;;142.18;124.30;;;;;;;;;;5008652;28;20345;-74
2023/12/20 08:19:00;;;;;;;159.68;137.73;;;;;;;;;;5007174;28;20080;-77
2023/12/20 08:21:26;;;;;;;243.52;217.35;;;;;;;;;;5007620;28;20034;-79
2023/12/20 08:23:52;;;;;;;228.82;203.85;;;;;;;;;;5008347;28;20068;-76
2023/12/20 08:26:18;;;;;;;154.82;131.98;;;;;;;;;;5005835;28;20117;-74
2023/12/20 08:28:44;;;;;;;110.03;94.20;;;;;;;;;;5023062;28;20092;-76
2023/12/20 08:31:13;;;;;;;247.35;212.55;;;;;;;;;;5016445;28;20068;-76
2023/12/20 08:33:39;;;;;;;;;;;;;;;;;;5013584;28;20418;-76
2023/12/20 08:36:05;;;;;;;452.30;367.13;;;;;;;;;;5010753;28;19912;-76
2023/12/20 08:38:30;;;;;;;258.15;204.48;;;;;;;;;;5023372;28;20033;-77
2023/12/20 08:40:56;;;;;;;180.20;151.18;;;;;;;;;;5022029;28;20029;-76
2023/12/20 08:43:21;;;;;;;120.28;98.07;;;;;;;;;;5022819;28;20014;-77
2023/12/20 08:45:46;;;;;;;170.90;140.73;;;;;;;;;;5023036;28;20033;-77
2023/12/20 08:48:12;;;;;;;362.10;271.40;;;;;;;;;;5009462;28;20080;-77
2023/12/20 08:50:38;;;;;;;334.92;238.50;;;;;;;;;;5022841;28;20452;-76
2023/12/20 08:53:04;;;;;;;267.70;184.73;;;;;;;;;;5021226;28;20060;-77
2023/12/20 08:55:30;;;;;;;262.67;183.27;;;;;;;;;;5006576;28;20102;-78
2023/12/20 08:57:56;;;;;;;149.77;117.95;;;;;;;;;;5016537;28;20441;-79
2023/12/20 09:00:24;;;;;;;236.48;182.95;;;;;;;;;;5006882;28;20083;-78
2023/12/20 09:02:49;;;;;;;233.25;199.65;;;;;;;;;;5022832;28;20029;-76
2023/12/20 09:05:15;;;;;;;245.20;207.93;;;;;;;;;;5022924;28;20024;-75
2023/12/20 09:07:40;;;;;;;242.00;191.68;;;;;;;;;;5021826;28;20029;-75
2023/12/20 09:10:06;;;;;;;236.75;183.18;;;;;;;;;;5012722;28;20033;-76
2023/12/20 09:12:31;;;;;;;234.77;156.18;;;;;;;;;;5019359;28;20116;-77
2023/12/20 09:14:56;;;;;;;262.08;204.32;;;;;;;;;;5021467;28;20099;-78
2023/12/20 09:17:22;;;;;;;362.98;254.07;;;;;;;;;;5022473;28;20021;-76
2023/12/20 09:19:53;;;;;;;330.83;230.38;;;;;;;;;;5019239;28;20029;-78
2023/12/20 09:22:19;;;;;;;176.68;145.77;;;;;;;;;;5005884;28;20499;-77
2023/12/20 09:24:44;;;;;;;370.77;224.40;;;;;;;;;;5016088;28;20041;-79
2023/12/20 09:27:10;;;;;;;245.68;144.70;;;;;;;;;;5008204;28;20088;-76
2023/12/20 09:29:35;;;;;;;75.43;52.67;;;;;;;;;;5007777;28;20036;-78
2023/12/20 09:32:01;;;;;;;91.10;70.30;;;;;;;;;;5009330;28;20025;-76
2023/12/20 09:34:27;;;;;;;749.63;445.27;;;;;;;;;;5008629;28;20080;-77
2023/12/20 09:36:52;;;;;;;263.33;169.25;;;;;;;;;;5010614;28;20459;-78
2023/12/20 09:39:21;;;;;;;274.55;163.30;;;;;;;;;;5009340;28;20112;-78
2023/12/20 09:42:03;;;;;;;268.70;160.73;;;;;;;;;;5008934;28;20449;-75
2023/12/20 09:44:29;;;;;;;217.07;166.88;;;;;;;;;;5008867;28;20084;-80
2023/12/20 09:46:55;;;;;;;253.10;212.50;;;;;;;;;;5008993;28;20065;-79
2023/12/20 09:49:21;;;;;;;217.02;182.45;;;;;;;;;;5006664;28;20033;-80
2023/12/20 09:51:47;;;;;;;291.90;235.35;;;;;;;;;;5008220;28;20033;-79
2023/12/20 09:54:17;;;;;;;305.42;231.40;;;;;;;;;;5003143;28;20094;-78
2023/12/20 09:56:42;;;;;;;197.80;159.32;;;;;;;;;;5003799;28;20545;-77
2023/12/20 09:59:07;;;;;;;158.90;137.00;;;;;;;;;;5015963;28;20018;-79
2023/12/20 10:01:34;;;;;;;138.88;109.50;;;;;;;;;;5021619;28;20480;-76
2023/12/20 10:04:00;;;;;;;399.80;278.02;;;;;;;;;;5021994;28;20056;-77
2023/12/20 10:06:25;;;;;;;266.13;171.63;;;;;;;;;;5021985;28;20032;-78
2023/12/20 10:08:50;;;;;;;267.58;158.55;;;;;;;;;;5021736;28;20461;-78
2023/12/20 10:11:16;;;;;;;212.18;115.32;;;;;;;;;;5020246;28;20357;-78
2023/12/20 10:13:42;;;;;;;136.82;79.97;;;;;;;;;;5022116;28;20041;-77
2023/12/20 10:16:08;;;;;;;193.70;137.57;;;;;;;;;;5021934;28;20029;-77
2023/12/20 10:18:33;;;;;;;197.80;151.48;;;;;;;;;;5021987;28;20498;-77
2023/12/20 10:20:59;;;;;;;58.30;46.20;;;;;;;;;;5020386;28;20071;-77
2023/12/20 10:23:25;;;;;;;531.90;331.95;;;;;;;;;;5022181;28;20026;-77
2023/12/20 10:25:58;;;;;;;214.73;134.40;;;;;;;;;;5005689;28;20021;-78
2023/12/20 10:28:27;;;;;;;128.23;91.30;;;;;;;;;;5003367;28;20978;-78
2023/12/20 10:30:53;;;;;;;91.72;77.30;;;;;;;;;;5005650;28;20160;-79
2023/12/20 10:33:25;;;;;;;101.85;86.35;;;;;;;;;;5004949;28;20041;-79
2023/12/20 10:35:52;;;;;;;106.55;89.53;;;;;;;;;;5006307;28;20033;-78
2023/12/20 10:38:17;;;;;;;90.07;69.05;;;;;;;;;;5006741;28;20351;-79
2023/12/20 10:40:43;;;;;;;226.40;142.05;;;;;;;;;;5015122;28;20030;-79
2023/12/20 10:43:08;;;;;;;147.85;104.68;;;;;;;;;;5021815;28;20124;-79
2023/12/20 10:45:34;;;;;;;145.77;116.05;;;;;;;;;;5021899;28;20075;-79
2023/12/20 10:47:59;;;;;;;200.45;167.77;;;;;;;;;;5019896;28;20340;-78
2023/12/20 10:50:26;;;;;;;131.63;114.60;;;;;;;;;;5005711;28;20437;-79
2023/12/20 10:52:55;;;;;;;160.13;134.82;;;;;;;;;;5021641;28;20067;-79
2023/12/20 10:55:21;;;;;;;85.25;74.35;;;;;;;;;;5021151;28;20029;-83
2023/12/20 10:57:50;;;;;;;60.40;50.55;;;;;;;;;;5020004;28;20092;-78
2023/12/20 11:00:17;;;;;;;72.25;60.60;;;;;;;;;;5007907;28;20388;-82
2023/12/20 11:02:43;;;;;;;77.50;67.78;;;;;;;;;;5005950;28;20048;-80
2023/12/20 11:05:24;;;;;;;71.20;62.33;;;;;;;;;;5006845;28;20018;-79
2023/12/20 11:08:03;;;;;;;59.15;50.08;;;;;;;;;;4994562;28;20580;-79
2023/12/20 11:10:31;;;;;;;117.93;101.20;;;;;;;;;;5020763;28;20018;-79
2023/12/20 11:13:00;;;;;;;130.60;108.95;;;;;;;;;;5021326;28;20126;-79
2023/12/20 11:15:27;;;;;;;108.28;92.15;;;;;;;;;;5011601;28;20025;-80
2023/12/20 11:17:56;;;;;;;69.43;58.15;;;;;;;;;;5019687;28;20513;-79
2023/12/20 11:20:22;;;;;;;43.53;35.08;;;;;;;;;;5020836;28;20463;-78
2023/12/20 11:22:52;;;;;;;43.78;35.22;;;;;;;;;;5021521;28;20411;-78
2023/12/20 11:25:17;;;;;;;17.50;13.77;;;;;;;;;;5021554;28;20384;-81
2023/12/20 11:27:43;;;;;;;19.60;17.65;;;;;;;;;;5021054;28;20017;-80
2023/12/20 11:30:09;;;;;;;19.90;16.20;;;;;;;;;;5019147;28;20055;-81
2023/12/20 11:32:35;;;;;;;16.25;14.25;;;;;;;;;;5019608;28;20032;-80
2023/12/20 11:35:10;;;;;;;10.75;9.38;;;;;;;;;;5004467;28;20021;-83
2023/12/20 11:37:36;;;;;;;13.88;12.35;;;;;;;;;;5009030;28;20036;-79
2023/12/20 11:40:03;;;;;;;10.63;9.52;;;;;;;;;;5021217;28;20437;-80
2023/12/20 11:42:32;;;;;;;11.68;10.48;;;;;;;;;;5019422;28;20025;-79
2023/12/20 11:44:59;;;;;;;14.30;12.80;;;;;;;;;;5022032;28;20112;-82
2023/12/20 11:47:25;;;;;;;13.68;11.38;;;;;;;;;;5024318;28;20021;-81
2023/12/20 11:49:51;;;;;;;20.80;17.75;;;;;;;;;;5024009;28;20027;-80
2023/12/20 11:52:16;;;;;;;16.25;14.55;;;;;;;;;;5024582;28;20025;-80
2023/12/20 11:54:41;;;;;;;18.60;16.33;;;;;;;;;;5024992;28;20030;-81
2023/12/20 11:57:07;;;;;;;17.73;16.13;;;;;;;;;;5025009;28;20018;-80
2023/12/20 11:59:32;;;;;;;19.55;17.42;;;;;;;;;;5009042;28;20501;-80
2023/12/20 12:02:00;;;;;;;11.90;10.60;;;;;;;;;;5024430;28;20025;-82
2023/12/20 12:04:26;;;;;;;12.43;11.13;;;;;;;;;;5024811;28;20135;-82
2023/12/20 12:06:51;;;;;;;25.75;21.58;;;;;;;;;;5024360;28;20076;-82
2023/12/20 12:09:17;;;;;;;15.55;13.88;;;;;;;;;;5023473;28;20484;-82
2023/12/20 12:11:43;;;;;;;14.65;13.15;;;;;;;;;;5024102;28;20144;-81
2023/12/20 12:14:08;;;;;;;10.95;8.93;;;;;;;;;;5023988;28;20022;-80
2023/12/20 12:16:33;;;;;;;11.43;9.23;;;;;;;;;;5023182;28;20034;-83
2023/12/20 12:19:00;;;;;;;8.60;7.30;;;;;;;;;;5024410;28;20429;-82
2023/12/20 12:21:25;;;;;;;13.93;11.80;;;;;;;;;;5023019;28;20025;-82
2023/12/20 12:23:51;;;;;;;14.40;11.07;;;;;;;;;;5023021;28;20024;-84
2023/12/20 12:26:16;;;;;;;10.60;8.40;;;;;;;;;;5023560;28;20025;-83
2023/12/20 12:28:42;;;;;;;8.93;8.02;;;;;;;;;;5022764;28;20115;-83
2023/12/20 12:31:08;;;;;;;5.38;4.88;;;;;;;;;;5022849;28;20100;-82
2023/12/20 12:33:33;;;;;;;10.68;9.55;;;;;;;;;;5023282;28;20044;-82
2023/12/20 12:35:59;;;;;;;11.93;9.43;;;;;;;;;;5022508;28;20131;-77
2023/12/20 12:38:25;;;;;;;11.10;9.85;;;;;;;;;;5023014;28;20061;-79
2023/12/20 12:40:50;;;;;;;16.25;14.57;;;;;;;;;;5023835;28;20142;-81
2023/12/20 12:43:16;;;;;;;21.67;16.75;;;;;;;;;;5023863;28;20144;-81
2023/12/20 12:45:41;;;;;;;13.55;11.40;;;;;;;;;;5023000;28;20091;-84
2023/12/20 12:48:07;;;;;;;18.92;16.67;;;;;;;;;;5024478;28;20459;-80
2023/12/20 12:50:32;;;;;;;10.65;9.55;;;;;;;;;;5023960;28;20021;-84
2023/12/20 12:52:57;;;;;;;14.75;12.38;;;;;;;;;;5024171;28;20360;-84
2023/12/20 12:55:23;;;;;;;22.02;19.80;;;;;;;;;;5023754;28;20449;-80
2023/12/20 12:57:48;;;;;;;20.25;18.25;;;;;;;;;;5022849;28;20039;-79
2023/12/20 13:00:14;;;;;;;7.75;6.63;;;;;;;;;;5023826;28;20017;-81
2023/12/20 13:02:41;;;;;;;22.65;17.58;;;;;;;;;;5023528;28;20030;-80
2023/12/20 13:05:07;;;;;;;31.33;26.42;;;;;;;;;;5023786;28;20021;-80
2023/12/20 13:07:33;;;;;;;44.55;35.83;;;;;;;;;;5022858;28;20039;-79
2023/12/20 13:09:58;;;;;;;33.97;27.70;;;;;;;;;;5023545;28;20104;-80
2023/12/20 13:12:23;;;;;;;18.08;14.07;;;;;;;;;;5023335;28;20029;-81
2023/12/20 13:14:49;;;;;;;13.90;11.15;;;;;;;;;;5022719;28;20052;-80
2023/12/20 13:17:15;;;;;;;29.48;22.95;;;;;;;;;;5024093;28;20053;-80
2023/12/20 13:19:40;;;;;;;61.42;51.58;;;;;;;;;;5023186;28;20025;-80
2023/12/20 13:22:06;;;;;;;76.13;65.78;;;;;;;;;;5021327;28;21075;-79
2023/12/20 13:24:32;;;;;;;87.68;78.20;;;;;;;;;;5023255;28;20036;-81
2023/12/20 13:26:57;;;;;;;79.78;69.80;;;;;;;;;;5022150;28;20338;-79
2023/12/20 13:29:23;;;;;;;89.22;77.28;;;;;;;;;;5022699;28;20132;-79
2023/12/20 13:31:49;;;;;;;83.65;74.43;;;;;;;;;;5022891;28;20044;-80
2023/12/20 13:34:16;;;;;;;118.63;103.55;;;;;;;;;;5023381;28;20072;-80
2023/12/20 13:36:43;;;;;;;88.53;78.97;;;;;;;;;;5022935;28;20025;-79
2023/12/20 13:39:08;;;;;;;117.30;103.88;;;;;;;;;;5023299;28;20120;-80
2023/12/20 13:41:33;;;;;;;143.50;124.28;;;;;;;;;;5022883;28;20112;-80
2023/12/20 13:43:58;;;;;;;103.00;87.05;;;;;;;;;;5023495;28;20053;-78
2023/12/20 13:46:24;;;;;;;103.22;91.07;;;;;;;;;;5023506;28;20079;-80
2023/12/20 13:48:49;;;;;;;76.15;65.70;;;;;;;;;;5022772;28;20032;-80
2023/12/20 13:51:15;;;;;;;77.00;65.93;;;;;;;;;;5023307;28;20041;-80
2023/12/20 13:53:40;;;;;;;58.15;47.92;;;;;;;;;;5022421;28;20032;-80
2023/12/20 13:56:06;;;;;;;43.60;38.33;;;;;;;;;;5021407;28;20025;-80